sensor_id;sensor_type;location;lat;lon;timestamp;P1;durP1;ratioP1;P2;durP2;ratioP2
17993;SDS011;9122;48.406;9.984;2022-11-20T00:00:38;5.37;;;4.87;;
17993;SDS011;9122;48.406;9.984;2022-11-20T00:03:22;5.90;;;5.40;;
17993;SDS011;9122;48.406;9.984;2022-11-20T00:06:14;5.33;;;4.83;;
17993;SDS011;9122;48.406;9.984;2022-11-20T00:09:00;4.53;;;4.13;;
17993;SDS011;9122;48.406;9.984;2022-11-20T00:11:45;4.73;;;4.43;;
17993;SDS011;9122;48.406;9.984;2022-11-20T00:14:40;5.07;;;4.67;;
17993;SDS011;9122;48.406;9.984;2022-11-20T00:17:24;5.27;;;4.77;;
17993;SDS011;9122;48.406;9.984;2022-11-20T00:20:09;4.93;;;4.40;;
17993;SDS011;9122;48.406;9.984;2022-11-20T00:22:54;4.43;;;4.10;;
17993;SDS011;9122;48.406;9.984;2022-11-20T00:25:39;5.37;;;4.90;;
17993;SDS011;9122;48.406;9.984;2022-11-20T00:28:23;5.37;;;4.80;;
17993;SDS011;9122;48.406;9.984;2022-11-20T00:33:56;5.77;;;5.27;;
17993;SDS011;9122;48.406;9.984;2022-11-20T00:36:40;5.40;;;4.97;;
17993;SDS011;9122;48.406;9.984;2022-11-20T00:39:25;6.97;;;4.93;;
17993;SDS011;9122;48.406;9.984;2022-11-20T00:42:09;5.50;;;4.80;;
17993;SDS011;9122;48.406;9.984;2022-11-20T00:44:53;5.30;;;4.90;;
17993;SDS011;9122;48.406;9.984;2022-11-20T00:47:37;5.10;;;4.70;;
17993;SDS011;9122;48.406;9.984;2022-11-20T00:50:21;4.77;;;4.47;;
17993;SDS011;9122;48.406;9.984;2022-11-20T00:53:05;5.20;;;4.80;;
17993;SDS011;9122;48.406;9.984;2022-11-20T00:58:40;5.47;;;5.07;;
17993;SDS011;9122;48.406;9.984;2022-11-20T01:01:28;5.30;;;4.83;;
17993;SDS011;9122;48.406;9.984;2022-11-20T01:04:15;4.77;;;4.37;;
17993;SDS011;9122;48.406;9.984;2022-11-20T01:07:00;5.20;;;4.80;;
17993;SDS011;9122;48.406;9.984;2022-11-20T01:09:45;4.67;;;4.27;;
17993;SDS011;9122;48.406;9.984;2022-11-20T01:12:29;5.10;;;4.70;;
17993;SDS011;9122;48.406;9.984;2022-11-20T01:15:14;4.80;;;4.40;;
17993;SDS011;9122;48.406;9.984;2022-11-20T01:17:59;4.60;;;4.20;;
17993;SDS011;9122;48.406;9.984;2022-11-20T01:20:43;4.80;;;4.30;;
17993;SDS011;9122;48.406;9.984;2022-11-20T01:23:32;5.33;;;4.93;;
17993;SDS011;9122;48.406;9.984;2022-11-20T01:26:22;4.80;;;4.40;;
17993;SDS011;9122;48.406;9.984;2022-11-20T01:29:16;6.10;;;5.50;;
17993;SDS011;9122;48.406;9.984;2022-11-20T01:32:02;5.57;;;5.17;;
17993;SDS011;9122;48.406;9.984;2022-11-20T01:34:47;6.53;;;5.83;;
17993;SDS011;9122;48.406;9.984;2022-11-20T01:37:31;5.70;;;5.20;;
17993;SDS011;9122;48.406;9.984;2022-11-20T01:40:16;5.23;;;4.77;;
17993;SDS011;9122;48.406;9.984;2022-11-20T01:43:13;5.53;;;4.80;;
17993;SDS011;9122;48.406;9.984;2022-11-20T01:48:57;5.57;;;5.07;;
17993;SDS011;9122;48.406;9.984;2022-11-20T01:52:03;5.23;;;4.80;;
17993;SDS011;9122;48.406;9.984;2022-11-20T01:54:56;5.00;;;4.60;;
17993;SDS011;9122;48.406;9.984;2022-11-20T01:57:48;5.43;;;5.03;;
17993;SDS011;9122;48.406;9.984;2022-11-20T02:00:33;5.47;;;4.97;;
17993;SDS011;9122;48.406;9.984;2022-11-20T02:03:18;5.73;;;5.27;;
17993;SDS011;9122;48.406;9.984;2022-11-20T02:06:06;5.23;;;4.83;;
17993;SDS011;9122;48.406;9.984;2022-11-20T02:09:16;5.50;;;5.00;;
17993;SDS011;9122;48.406;9.984;2022-11-20T02:12:00;5.13;;;4.73;;
17993;SDS011;9122;48.406;9.984;2022-11-20T02:14:46;5.30;;;4.90;;
17993;SDS011;9122;48.406;9.984;2022-11-20T02:17:30;6.07;;;5.57;;
17993;SDS011;9122;48.406;9.984;2022-11-20T02:20:15;5.50;;;5.00;;
17993;SDS011;9122;48.406;9.984;2022-11-20T02:25:53;5.50;;;5.10;;
17993;SDS011;9122;48.406;9.984;2022-11-20T02:28:39;5.30;;;4.90;;
17993;SDS011;9122;48.406;9.984;2022-11-20T02:31:23;5.90;;;5.40;;
17993;SDS011;9122;48.406;9.984;2022-11-20T02:34:08;6.13;;;5.53;;
17993;SDS011;9122;48.406;9.984;2022-11-20T02:36:53;6.43;;;5.93;;
17993;SDS011;9122;48.406;9.984;2022-11-20T02:39:37;6.10;;;5.70;;
17993;SDS011;9122;48.406;9.984;2022-11-20T02:42:23;5.53;;;5.13;;
17993;SDS011;9122;48.406;9.984;2022-11-20T02:45:11;5.97;;;5.47;;
17993;SDS011;9122;48.406;9.984;2022-11-20T02:47:56;5.47;;;4.97;;
17993;SDS011;9122;48.406;9.984;2022-11-20T02:50:40;6.23;;;5.10;;
17993;SDS011;9122;48.406;9.984;2022-11-20T02:53:27;5.00;;;4.60;;
17993;SDS011;9122;48.406;9.984;2022-11-20T02:56:12;5.37;;;4.97;;
17993;SDS011;9122;48.406;9.984;2022-11-20T02:59:02;5.13;;;4.53;;
17993;SDS011;9122;48.406;9.984;2022-11-20T03:01:47;5.73;;;5.23;;
17993;SDS011;9122;48.406;9.984;2022-11-20T03:04:31;5.63;;;5.13;;
17993;SDS011;9122;48.406;9.984;2022-11-20T03:07:16;5.23;;;4.83;;
17993;SDS011;9122;48.406;9.984;2022-11-20T03:10:00;5.07;;;4.70;;
17993;SDS011;9122;48.406;9.984;2022-11-20T03:12:45;4.90;;;4.50;;
17993;SDS011;9122;48.406;9.984;2022-11-20T03:15:29;5.43;;;4.93;;
17993;SDS011;9122;48.406;9.984;2022-11-20T03:18:14;5.40;;;4.90;;
17993;SDS011;9122;48.406;9.984;2022-11-20T03:20:59;4.83;;;4.53;;
17993;SDS011;9122;48.406;9.984;2022-11-20T03:23:43;5.03;;;4.53;;
17993;SDS011;9122;48.406;9.984;2022-11-20T03:26:28;4.97;;;4.67;;
17993;SDS011;9122;48.406;9.984;2022-11-20T03:29:13;4.97;;;4.53;;
17993;SDS011;9122;48.406;9.984;2022-11-20T03:31:57;4.47;;;4.17;;
17993;SDS011;9122;48.406;9.984;2022-11-20T03:34:41;5.00;;;4.60;;
17993;SDS011;9122;48.406;9.984;2022-11-20T03:37:26;4.93;;;4.53;;
17993;SDS011;9122;48.406;9.984;2022-11-20T03:40:11;3.90;;;3.60;;
17993;SDS011;9122;48.406;9.984;2022-11-20T03:42:55;4.60;;;4.20;;
17993;SDS011;9122;48.406;9.984;2022-11-20T03:45:39;4.23;;;3.90;;
17993;SDS011;9122;48.406;9.984;2022-11-20T03:48:23;4.43;;;4.13;;
17993;SDS011;9122;48.406;9.984;2022-11-20T03:54:04;4.73;;;4.33;;
17993;SDS011;9122;48.406;9.984;2022-11-20T03:56:50;4.97;;;4.00;;
17993;SDS011;9122;48.406;9.984;2022-11-20T03:59:38;5.00;;;4.60;;
17993;SDS011;9122;48.406;9.984;2022-11-20T04:02:22;4.17;;;3.87;;
17993;SDS011;9122;48.406;9.984;2022-11-20T04:05:07;4.20;;;3.90;;
17993;SDS011;9122;48.406;9.984;2022-11-20T04:07:52;4.60;;;4.20;;
17993;SDS011;9122;48.406;9.984;2022-11-20T04:10:36;4.47;;;4.07;;
17993;SDS011;9122;48.406;9.984;2022-11-20T04:13:21;4.27;;;3.97;;
17993;SDS011;9122;48.406;9.984;2022-11-20T04:16:06;4.67;;;4.27;;
17993;SDS011;9122;48.406;9.984;2022-11-20T04:18:54;4.93;;;4.53;;
17993;SDS011;9122;48.406;9.984;2022-11-20T04:21:40;3.93;;;3.67;;
17993;SDS011;9122;48.406;9.984;2022-11-20T04:24:25;4.77;;;4.37;;
17993;SDS011;9122;48.406;9.984;2022-11-20T04:27:10;4.27;;;3.97;;
17993;SDS011;9122;48.406;9.984;2022-11-20T04:29:55;4.63;;;4.17;;
17993;SDS011;9122;48.406;9.984;2022-11-20T04:32:39;4.93;;;4.53;;
17993;SDS011;9122;48.406;9.984;2022-11-20T04:35:23;4.20;;;3.90;;
17993;SDS011;9122;48.406;9.984;2022-11-20T04:38:08;4.40;;;4.00;;
17993;SDS011;9122;48.406;9.984;2022-11-20T04:40:55;4.57;;;4.27;;
17993;SDS011;9122;48.406;9.984;2022-11-20T04:43:48;5.07;;;4.57;;
17993;SDS011;9122;48.406;9.984;2022-11-20T04:46:35;5.20;;;4.80;;
17993;SDS011;9122;48.406;9.984;2022-11-20T04:49:24;4.80;;;4.50;;
17993;SDS011;9122;48.406;9.984;2022-11-20T04:52:08;4.90;;;4.57;;
17993;SDS011;9122;48.406;9.984;2022-11-20T04:54:52;4.90;;;4.50;;
17993;SDS011;9122;48.406;9.984;2022-11-20T04:57:37;5.20;;;4.90;;
17993;SDS011;9122;48.406;9.984;2022-11-20T05:00:25;4.90;;;4.50;;
17993;SDS011;9122;48.406;9.984;2022-11-20T05:03:10;4.53;;;4.23;;
17993;SDS011;9122;48.406;9.984;2022-11-20T05:05:54;5.43;;;5.03;;
17993;SDS011;9122;48.406;9.984;2022-11-20T05:08:39;4.30;;;4.00;;
17993;SDS011;9122;48.406;9.984;2022-11-20T05:11:23;4.33;;;4.03;;
17993;SDS011;9122;48.406;9.984;2022-11-20T05:14:08;4.80;;;4.50;;
17993;SDS011;9122;48.406;9.984;2022-11-20T05:16:53;4.97;;;4.57;;
17993;SDS011;9122;48.406;9.984;2022-11-20T05:19:37;4.80;;;4.50;;
17993;SDS011;9122;48.406;9.984;2022-11-20T05:22:22;5.00;;;4.60;;
17993;SDS011;9122;48.406;9.984;2022-11-20T05:25:07;4.80;;;4.40;;
17993;SDS011;9122;48.406;9.984;2022-11-20T05:27:54;5.50;;;5.10;;
17993;SDS011;9122;48.406;9.984;2022-11-20T05:30:39;6.07;;;5.57;;
17993;SDS011;9122;48.406;9.984;2022-11-20T05:33:23;5.33;;;4.83;;
17993;SDS011;9122;48.406;9.984;2022-11-20T05:36:08;6.03;;;5.10;;
17993;SDS011;9122;48.406;9.984;2022-11-20T05:38:56;5.50;;;5.00;;
17993;SDS011;9122;48.406;9.984;2022-11-20T05:41:41;5.87;;;5.37;;
17993;SDS011;9122;48.406;9.984;2022-11-20T05:44:52;6.00;;;5.50;;
17993;SDS011;9122;48.406;9.984;2022-11-20T05:47:37;6.13;;;5.53;;
17993;SDS011;9122;48.406;9.984;2022-11-20T05:50:21;6.93;;;6.33;;
17993;SDS011;9122;48.406;9.984;2022-11-20T05:53:06;5.97;;;5.47;;
17993;SDS011;9122;48.406;9.984;2022-11-20T05:56:04;7.20;;;6.57;;
17993;SDS011;9122;48.406;9.984;2022-11-20T05:58:58;6.80;;;6.20;;
17993;SDS011;9122;48.406;9.984;2022-11-20T06:01:42;7.57;;;6.87;;
17993;SDS011;9122;48.406;9.984;2022-11-20T06:04:27;7.10;;;6.40;;
17993;SDS011;9122;48.406;9.984;2022-11-20T06:07:11;6.20;;;5.77;;
17993;SDS011;9122;48.406;9.984;2022-11-20T06:09:56;6.60;;;6.10;;
17993;SDS011;9122;48.406;9.984;2022-11-20T06:12:41;6.80;;;6.20;;
17993;SDS011;9122;48.406;9.984;2022-11-20T06:15:26;6.07;;;5.57;;
17993;SDS011;9122;48.406;9.984;2022-11-20T06:18:13;6.70;;;6.03;;
17993;SDS011;9122;48.406;9.984;2022-11-20T06:23:45;7.57;;;6.87;;
17993;SDS011;9122;48.406;9.984;2022-11-20T06:26:31;5.80;;;5.30;;
17993;SDS011;9122;48.406;9.984;2022-11-20T06:29:17;7.53;;;6.83;;
17993;SDS011;9122;48.406;9.984;2022-11-20T06:32:02;7.40;;;6.70;;
17993;SDS011;9122;48.406;9.984;2022-11-20T06:34:46;7.97;;;7.17;;
17993;SDS011;9122;48.406;9.984;2022-11-20T06:37:31;7.40;;;6.73;;
17993;SDS011;9122;48.406;9.984;2022-11-20T06:40:16;8.00;;;7.30;;
17993;SDS011;9122;48.406;9.984;2022-11-20T06:43:03;8.30;;;7.50;;
17993;SDS011;9122;48.406;9.984;2022-11-20T06:45:51;8.53;;;7.83;;
17993;SDS011;9122;48.406;9.984;2022-11-20T06:48:37;8.77;;;7.97;;
17993;SDS011;9122;48.406;9.984;2022-11-20T06:51:22;9.40;;;8.00;;
17993;SDS011;9122;48.406;9.984;2022-11-20T06:54:06;8.90;;;8.10;;
17993;SDS011;9122;48.406;9.984;2022-11-20T06:56:51;8.63;;;7.90;;
17993;SDS011;9122;48.406;9.984;2022-11-20T06:59:36;7.67;;;7.07;;
17993;SDS011;9122;48.406;9.984;2022-11-20T07:02:21;8.97;;;8.03;;
17993;SDS011;9122;48.406;9.984;2022-11-20T07:05:05;7.97;;;7.37;;
17993;SDS011;9122;48.406;9.984;2022-11-20T07:08:08;7.83;;;7.13;;
17993;SDS011;9122;48.406;9.984;2022-11-20T07:10:56;8.63;;;7.83;;
17993;SDS011;9122;48.406;9.984;2022-11-20T07:21:07;7.17;;;6.67;;
17993;SDS011;9122;48.406;9.984;2022-11-20T07:27:22;7.60;;;7.00;;
17993;SDS011;9122;48.406;9.984;2022-11-20T07:30:18;8.93;;;8.13;;
17993;SDS011;9122;48.406;9.984;2022-11-20T07:33:09;7.27;;;6.67;;
17993;SDS011;9122;48.406;9.984;2022-11-20T07:36:05;7.30;;;6.43;;
17993;SDS011;9122;48.406;9.984;2022-11-20T07:38:53;6.97;;;6.37;;
17993;SDS011;9122;48.406;9.984;2022-11-20T07:41:45;7.50;;;6.47;;
17993;SDS011;9122;48.406;9.984;2022-11-20T07:44:48;7.23;;;6.53;;
17993;SDS011;9122;48.406;9.984;2022-11-20T07:47:36;6.70;;;6.17;;
17993;SDS011;9122;48.406;9.984;2022-11-20T07:50:20;6.67;;;6.07;;
17993;SDS011;9122;48.406;9.984;2022-11-20T07:53:09;6.80;;;6.17;;
17993;SDS011;9122;48.406;9.984;2022-11-20T07:55:54;7.07;;;6.37;;
17993;SDS011;9122;48.406;9.984;2022-11-20T07:58:38;6.40;;;5.80;;
17993;SDS011;9122;48.406;9.984;2022-11-20T08:01:23;6.17;;;5.57;;
17993;SDS011;9122;48.406;9.984;2022-11-20T08:04:08;5.97;;;5.50;;
17993;SDS011;9122;48.406;9.984;2022-11-20T08:06:55;7.63;;;6.93;;
17993;SDS011;9122;48.406;9.984;2022-11-20T08:09:40;6.43;;;5.83;;
17993;SDS011;9122;48.406;9.984;2022-11-20T08:12:35;7.70;;;6.30;;
17993;SDS011;9122;48.406;9.984;2022-11-20T08:15:50;7.00;;;6.30;;
17993;SDS011;9122;48.406;9.984;2022-11-20T08:18:40;6.33;;;5.73;;
17993;SDS011;9122;48.406;9.984;2022-11-20T08:21:32;6.07;;;5.50;;
17993;SDS011;9122;48.406;9.984;2022-11-20T08:24:23;6.60;;;6.00;;
17993;SDS011;9122;48.406;9.984;2022-11-20T08:27:11;7.00;;;6.30;;
17993;SDS011;9122;48.406;9.984;2022-11-20T08:30:11;7.00;;;6.30;;
17993;SDS011;9122;48.406;9.984;2022-11-20T08:33:08;7.33;;;6.73;;
17993;SDS011;9122;48.406;9.984;2022-11-20T08:36:07;6.17;;;5.67;;
17993;SDS011;9122;48.406;9.984;2022-11-20T08:38:55;6.50;;;5.93;;
17993;SDS011;9122;48.406;9.984;2022-11-20T08:41:39;7.03;;;6.43;;
17993;SDS011;9122;48.406;9.984;2022-11-20T08:44:24;6.73;;;6.17;;
17993;SDS011;9122;48.406;9.984;2022-11-20T08:47:09;5.37;;;4.97;;
17993;SDS011;9122;48.406;9.984;2022-11-20T08:49:53;6.03;;;5.53;;
17993;SDS011;9122;48.406;9.984;2022-11-20T08:52:37;6.17;;;5.77;;
17993;SDS011;9122;48.406;9.984;2022-11-20T08:55:23;5.30;;;4.90;;
17993;SDS011;9122;48.406;9.984;2022-11-20T08:58:08;5.83;;;5.40;;
17993;SDS011;9122;48.406;9.984;2022-11-20T09:00:52;5.77;;;5.27;;
17993;SDS011;9122;48.406;9.984;2022-11-20T09:03:37;5.90;;;5.40;;
17993;SDS011;9122;48.406;9.984;2022-11-20T09:06:25;6.10;;;5.50;;
17993;SDS011;9122;48.406;9.984;2022-11-20T09:09:10;5.80;;;5.30;;
17993;SDS011;9122;48.406;9.984;2022-11-20T09:11:55;6.10;;;5.50;;
17993;SDS011;9122;48.406;9.984;2022-11-20T09:14:45;5.17;;;4.77;;
17993;SDS011;9122;48.406;9.984;2022-11-20T09:17:30;5.37;;;4.87;;
17993;SDS011;9122;48.406;9.984;2022-11-20T09:20:14;5.47;;;4.87;;
17993;SDS011;9122;48.406;9.984;2022-11-20T09:22:59;5.13;;;4.73;;
17993;SDS011;9122;48.406;9.984;2022-11-20T09:25:44;3.80;;;3.50;;
17993;SDS011;9122;48.406;9.984;2022-11-20T09:28:30;4.83;;;4.30;;
17993;SDS011;9122;48.406;9.984;2022-11-20T09:31:21;5.70;;;4.23;;
17993;SDS011;9122;48.406;9.984;2022-11-20T09:34:07;4.73;;;4.33;;
17993;SDS011;9122;48.406;9.984;2022-11-20T09:36:52;4.10;;;3.80;;
17993;SDS011;9122;48.406;9.984;2022-11-20T09:39:37;4.50;;;4.00;;
17993;SDS011;9122;48.406;9.984;2022-11-20T09:48:46;4.03;;;3.73;;
17993;SDS011;9122;48.406;9.984;2022-11-20T09:51:57;3.90;;;3.60;;
17993;SDS011;9122;48.406;9.984;2022-11-20T09:54:43;3.50;;;3.30;;
17993;SDS011;9122;48.406;9.984;2022-11-20T09:57:36;3.90;;;3.60;;
17993;SDS011;9122;48.406;9.984;2022-11-20T10:00:23;3.90;;;3.60;;
17993;SDS011;9122;48.406;9.984;2022-11-20T10:03:19;3.77;;;3.47;;
17993;SDS011;9122;48.406;9.984;2022-11-20T10:06:15;3.03;;;2.83;;
17993;SDS011;9122;48.406;9.984;2022-11-20T10:12:02;2.47;;;2.37;;
17993;SDS011;9122;48.406;9.984;2022-11-20T10:21:00;3.17;;;2.97;;
17993;SDS011;9122;48.406;9.984;2022-11-20T10:24:04;2.50;;;2.30;;
17993;SDS011;9122;48.406;9.984;2022-11-20T10:27:07;2.77;;;2.57;;
17993;SDS011;9122;48.406;9.984;2022-11-20T10:30:27;3.70;;;3.40;;
17993;SDS011;9122;48.406;9.984;2022-11-20T10:33:18;3.10;;;2.90;;
17993;SDS011;9122;48.406;9.984;2022-11-20T10:36:40;3.07;;;2.87;;
17993;SDS011;9122;48.406;9.984;2022-11-20T10:39:33;2.73;;;2.47;;
17993;SDS011;9122;48.406;9.984;2022-11-20T10:48:46;2.43;;;2.27;;
17993;SDS011;9122;48.406;9.984;2022-11-20T10:55:06;2.53;;;2.43;;
17993;SDS011;9122;48.406;9.984;2022-11-20T10:58:07;2.77;;;2.57;;
17993;SDS011;9122;48.406;9.984;2022-11-20T11:01:04;2.60;;;2.50;;
17993;SDS011;9122;48.406;9.984;2022-11-20T11:03:50;1.93;;;1.83;;
17993;SDS011;9122;48.406;9.984;2022-11-20T11:06:37;2.57;;;2.47;;
17993;SDS011;9122;48.406;9.984;2022-11-20T11:09:32;2.37;;;2.27;;
17993;SDS011;9122;48.406;9.984;2022-11-20T11:12:21;3.00;;;2.80;;
17993;SDS011;9122;48.406;9.984;2022-11-20T11:15:11;2.50;;;2.40;;
17993;SDS011;9122;48.406;9.984;2022-11-20T11:18:00;2.70;;;2.50;;
17993;SDS011;9122;48.406;9.984;2022-11-20T11:20:49;3.00;;;2.80;;
17993;SDS011;9122;48.406;9.984;2022-11-20T11:23:37;3.20;;;2.47;;
17993;SDS011;9122;48.406;9.984;2022-11-20T11:26:23;2.90;;;2.70;;
17993;SDS011;9122;48.406;9.984;2022-11-20T11:29:17;2.47;;;2.27;;
17993;SDS011;9122;48.406;9.984;2022-11-20T11:32:11;2.40;;;2.30;;
17993;SDS011;9122;48.406;9.984;2022-11-20T11:34:59;3.00;;;2.80;;
17993;SDS011;9122;48.406;9.984;2022-11-20T11:37:44;2.60;;;2.40;;
17993;SDS011;9122;48.406;9.984;2022-11-20T11:40:31;2.63;;;2.43;;
17993;SDS011;9122;48.406;9.984;2022-11-20T11:43:20;2.80;;;2.60;;
17993;SDS011;9122;48.406;9.984;2022-11-20T11:46:33;3.27;;;3.07;;
17993;SDS011;9122;48.406;9.984;2022-11-20T11:49:19;3.23;;;3.03;;
17993;SDS011;9122;48.406;9.984;2022-11-20T11:55:04;2.73;;;2.53;;
17993;SDS011;9122;48.406;9.984;2022-11-20T11:58:11;2.50;;;2.40;;
17993;SDS011;9122;48.406;9.984;2022-11-20T12:04:23;2.57;;;2.37;;
17993;SDS011;9122;48.406;9.984;2022-11-20T12:10:04;3.73;;;2.40;;
17993;SDS011;9122;48.406;9.984;2022-11-20T12:13:02;2.30;;;2.20;;
17993;SDS011;9122;48.406;9.984;2022-11-20T12:15:55;2.80;;;2.60;;
17993;SDS011;9122;48.406;9.984;2022-11-20T12:18:40;2.97;;;2.63;;
17993;SDS011;9122;48.406;9.984;2022-11-20T12:21:28;3.27;;;3.00;;
17993;SDS011;9122;48.406;9.984;2022-11-20T12:24:28;3.33;;;3.10;;
17993;SDS011;9122;48.406;9.984;2022-11-20T12:40:15;2.80;;;2.40;;
17993;SDS011;9122;48.406;9.984;2022-11-20T12:46:28;2.70;;;2.50;;
17993;SDS011;9122;48.406;9.984;2022-11-20T12:49:21;2.50;;;2.30;;
17993;SDS011;9122;48.406;9.984;2022-11-20T12:52:19;2.10;;;2.00;;
17993;SDS011;9122;48.406;9.984;2022-11-20T12:55:25;1.70;;;1.60;;
17993;SDS011;9122;48.406;9.984;2022-11-20T12:58:38;1.70;;;1.60;;
17993;SDS011;9122;48.406;9.984;2022-11-20T13:01:32;1.50;;;1.40;;
17993;SDS011;9122;48.406;9.984;2022-11-20T13:04:39;1.70;;;1.60;;
17993;SDS011;9122;48.406;9.984;2022-11-20T13:07:40;1.60;;;1.50;;
17993;SDS011;9122;48.406;9.984;2022-11-20T13:10:31;1.30;;;1.13;;
17993;SDS011;9122;48.406;9.984;2022-11-20T13:13:28;1.40;;;1.30;;
17993;SDS011;9122;48.406;9.984;2022-11-20T13:19:34;1.43;;;1.33;;
17993;SDS011;9122;48.406;9.984;2022-11-20T13:22:41;1.50;;;1.40;;
17993;SDS011;9122;48.406;9.984;2022-11-20T13:25:36;1.87;;;1.50;;
17993;SDS011;9122;48.406;9.984;2022-11-20T13:28:33;1.30;;;1.20;;
17993;SDS011;9122;48.406;9.984;2022-11-20T13:31:29;2.07;;;1.30;;
17993;SDS011;9122;48.406;9.984;2022-11-20T13:34:27;1.37;;;1.27;;
17993;SDS011;9122;48.406;9.984;2022-11-20T13:37:24;1.33;;;1.20;;
17993;SDS011;9122;48.406;9.984;2022-11-20T13:40:22;1.57;;;1.47;;
17993;SDS011;9122;48.406;9.984;2022-11-20T13:46:10;3.47;;;1.93;;
17993;SDS011;9122;48.406;9.984;2022-11-20T13:48:54;1.30;;;1.20;;
17993;SDS011;9122;48.406;9.984;2022-11-20T13:51:41;1.37;;;1.27;;
17993;SDS011;9122;48.406;9.984;2022-11-20T13:54:44;2.53;;;1.20;;
17993;SDS011;9122;48.406;9.984;2022-11-20T14:00:33;1.00;;;1.00;;
17993;SDS011;9122;48.406;9.984;2022-11-20T14:03:29;1.07;;;0.90;;
17993;SDS011;9122;48.406;9.984;2022-11-20T14:06:26;1.10;;;1.10;;
17993;SDS011;9122;48.406;9.984;2022-11-20T14:09:29;0.93;;;0.93;;
17993;SDS011;9122;48.406;9.984;2022-11-20T14:12:15;1.10;;;1.10;;
17993;SDS011;9122;48.406;9.984;2022-11-20T14:15:01;0.93;;;0.93;;
17993;SDS011;9122;48.406;9.984;2022-11-20T14:18:10;1.00;;;1.00;;
17993;SDS011;9122;48.406;9.984;2022-11-20T14:20:59;1.10;;;1.00;;
17993;SDS011;9122;48.406;9.984;2022-11-20T14:23:48;2.00;;;0.90;;
17993;SDS011;9122;48.406;9.984;2022-11-20T14:26:32;1.07;;;1.07;;
17993;SDS011;9122;48.406;9.984;2022-11-20T14:29:27;1.60;;;1.00;;
17993;SDS011;9122;48.406;9.984;2022-11-20T14:32:20;0.90;;;0.90;;
17993;SDS011;9122;48.406;9.984;2022-11-20T14:35:23;1.57;;;1.47;;
17993;SDS011;9122;48.406;9.984;2022-11-20T14:38:12;1.07;;;1.07;;
17993;SDS011;9122;48.406;9.984;2022-11-20T14:41:06;1.23;;;1.00;;
17993;SDS011;9122;48.406;9.984;2022-11-20T14:44:08;1.90;;;1.53;;
17993;SDS011;9122;48.406;9.984;2022-11-20T14:47:00;1.43;;;1.33;;
17993;SDS011;9122;48.406;9.984;2022-11-20T14:49:49;3.00;;;2.67;;
17993;SDS011;9122;48.406;9.984;2022-11-20T14:52:35;2.13;;;1.40;;
17993;SDS011;9122;48.406;9.984;2022-11-20T14:58:22;1.80;;;1.33;;
17993;SDS011;9122;48.406;9.984;2022-11-20T15:01:12;1.60;;;1.50;;
17993;SDS011;9122;48.406;9.984;2022-11-20T15:04:04;1.10;;;1.00;;
17993;SDS011;9122;48.406;9.984;2022-11-20T15:06:52;1.53;;;0.90;;
17993;SDS011;9122;48.406;9.984;2022-11-20T15:09:41;1.20;;;1.10;;
17993;SDS011;9122;48.406;9.984;2022-11-20T15:12:33;1.30;;;1.20;;
17993;SDS011;9122;48.406;9.984;2022-11-20T15:15:27;1.40;;;1.30;;
17993;SDS011;9122;48.406;9.984;2022-11-20T15:18:19;5.83;;;5.33;;
17993;SDS011;9122;48.406;9.984;2022-11-20T15:21:10;2.90;;;2.70;;
17993;SDS011;9122;48.406;9.984;2022-11-20T15:23:59;12.93;;;11.93;;
17993;SDS011;9122;48.406;9.984;2022-11-20T15:26:45;5.30;;;4.90;;
17993;SDS011;9122;48.406;9.984;2022-11-20T15:29:29;3.47;;;3.27;;
17993;SDS011;9122;48.406;9.984;2022-11-20T15:32:14;2.90;;;2.70;;
17993;SDS011;9122;48.406;9.984;2022-11-20T15:34:58;2.03;;;1.90;;
17993;SDS011;9122;48.406;9.984;2022-11-20T15:37:43;2.23;;;1.90;;
17993;SDS011;9122;48.406;9.984;2022-11-20T15:40:29;2.30;;;2.10;;
17993;SDS011;9122;48.406;9.984;2022-11-20T15:43:13;1.90;;;1.80;;
17993;SDS011;9122;48.406;9.984;2022-11-20T15:48:59;3.43;;;2.60;;
17993;SDS011;9122;48.406;9.984;2022-11-20T15:51:47;2.33;;;2.23;;
17993;SDS011;9122;48.406;9.984;2022-11-20T15:54:34;2.33;;;2.13;;
17993;SDS011;9122;48.406;9.984;2022-11-20T15:57:24;3.03;;;2.83;;
17993;SDS011;9122;48.406;9.984;2022-11-20T16:00:09;3.00;;;2.80;;
17993;SDS011;9122;48.406;9.984;2022-11-20T16:02:54;2.70;;;2.50;;
17993;SDS011;9122;48.406;9.984;2022-11-20T16:05:39;3.00;;;2.80;;
17993;SDS011;9122;48.406;9.984;2022-11-20T16:08:24;2.83;;;2.43;;
17993;SDS011;9122;48.406;9.984;2022-11-20T16:11:12;2.17;;;1.97;;
17993;SDS011;9122;48.406;9.984;2022-11-20T16:13:58;2.27;;;1.97;;
17993;SDS011;9122;48.406;9.984;2022-11-20T16:17:02;2.97;;;2.20;;
17993;SDS011;9122;48.406;9.984;2022-11-20T16:19:47;2.93;;;2.57;;
17993;SDS011;9122;48.406;9.984;2022-11-20T16:22:32;2.63;;;2.40;;
17993;SDS011;9122;48.406;9.984;2022-11-20T16:25:17;2.40;;;2.20;;
17993;SDS011;9122;48.406;9.984;2022-11-20T16:28:02;2.10;;;1.93;;
17993;SDS011;9122;48.406;9.984;2022-11-20T16:30:47;2.10;;;2.00;;
17993;SDS011;9122;48.406;9.984;2022-11-20T16:33:31;2.57;;;2.30;;
17993;SDS011;9122;48.406;9.984;2022-11-20T16:36:16;2.33;;;2.13;;
17993;SDS011;9122;48.406;9.984;2022-11-20T16:39:02;2.10;;;2.00;;
17993;SDS011;9122;48.406;9.984;2022-11-20T16:41:51;2.70;;;2.50;;
17993;SDS011;9122;48.406;9.984;2022-11-20T16:44:38;2.97;;;2.77;;
17993;SDS011;9122;48.406;9.984;2022-11-20T16:47:34;3.23;;;2.93;;
17993;SDS011;9122;48.406;9.984;2022-11-20T16:50:20;4.20;;;3.80;;
17993;SDS011;9122;48.406;9.984;2022-11-20T16:53:10;3.70;;;3.40;;
17993;SDS011;9122;48.406;9.984;2022-11-20T16:58:58;3.53;;;3.23;;
17993;SDS011;9122;48.406;9.984;2022-11-20T17:01:51;3.13;;;2.83;;
17993;SDS011;9122;48.406;9.984;2022-11-20T17:04:36;3.20;;;2.90;;
17993;SDS011;9122;48.406;9.984;2022-11-20T17:07:20;3.00;;;2.80;;
17993;SDS011;9122;48.406;9.984;2022-11-20T17:10:05;3.10;;;2.90;;
17993;SDS011;9122;48.406;9.984;2022-11-20T17:12:50;3.13;;;2.93;;
17993;SDS011;9122;48.406;9.984;2022-11-20T17:15:34;3.20;;;2.97;;
17993;SDS011;9122;48.406;9.984;2022-11-20T17:18:19;3.50;;;3.20;;
17993;SDS011;9122;48.406;9.984;2022-11-20T17:21:04;3.97;;;3.67;;
17993;SDS011;9122;48.406;9.984;2022-11-20T17:23:49;4.10;;;3.73;;
17993;SDS011;9122;48.406;9.984;2022-11-20T17:26:34;3.70;;;3.40;;
17993;SDS011;9122;48.406;9.984;2022-11-20T17:29:19;4.23;;;3.93;;
17993;SDS011;9122;48.406;9.984;2022-11-20T17:32:06;3.40;;;3.20;;
17993;SDS011;9122;48.406;9.984;2022-11-20T17:34:51;3.53;;;3.23;;
17993;SDS011;9122;48.406;9.984;2022-11-20T17:37:36;3.37;;;3.17;;
17993;SDS011;9122;48.406;9.984;2022-11-20T17:40:21;4.53;;;3.87;;
17993;SDS011;9122;48.406;9.984;2022-11-20T17:43:05;3.10;;;2.90;;
17993;SDS011;9122;48.406;9.984;2022-11-20T17:45:50;4.13;;;3.73;;
17993;SDS011;9122;48.406;9.984;2022-11-20T17:48:35;4.53;;;4.23;;
17993;SDS011;9122;48.406;9.984;2022-11-20T17:51:32;3.37;;;3.07;;
17993;SDS011;9122;48.406;9.984;2022-11-20T17:54:25;4.07;;;3.77;;
17993;SDS011;9122;48.406;9.984;2022-11-20T17:57:10;3.73;;;3.53;;
17993;SDS011;9122;48.406;9.984;2022-11-20T18:00:13;3.33;;;3.10;;
17993;SDS011;9122;48.406;9.984;2022-11-20T18:03:00;3.67;;;3.37;;
17993;SDS011;9122;48.406;9.984;2022-11-20T18:05:44;4.00;;;3.70;;
17993;SDS011;9122;48.406;9.984;2022-11-20T18:08:29;3.80;;;3.50;;
17993;SDS011;9122;48.406;9.984;2022-11-20T18:11:28;3.33;;;3.13;;
17993;SDS011;9122;48.406;9.984;2022-11-20T18:14:16;3.43;;;3.23;;
17993;SDS011;9122;48.406;9.984;2022-11-20T18:17:12;3.70;;;3.40;;
17993;SDS011;9122;48.406;9.984;2022-11-20T18:19:57;3.80;;;3.50;;
17993;SDS011;9122;48.406;9.984;2022-11-20T18:22:42;4.13;;;3.83;;
17993;SDS011;9122;48.406;9.984;2022-11-20T18:25:29;3.67;;;3.37;;
17993;SDS011;9122;48.406;9.984;2022-11-20T18:28:14;3.70;;;3.40;;
17993;SDS011;9122;48.406;9.984;2022-11-20T18:31:00;4.07;;;3.67;;
17993;SDS011;9122;48.406;9.984;2022-11-20T18:33:51;4.17;;;3.80;;
17993;SDS011;9122;48.406;9.984;2022-11-20T18:36:37;4.03;;;3.63;;
17993;SDS011;9122;48.406;9.984;2022-11-20T18:39:23;4.13;;;3.83;;
17993;SDS011;9122;48.406;9.984;2022-11-20T18:42:10;4.40;;;4.10;;
17993;SDS011;9122;48.406;9.984;2022-11-20T18:45:16;3.23;;;3.03;;
17993;SDS011;9122;48.406;9.984;2022-11-20T18:48:00;4.57;;;4.17;;